Time;durP1;ratioP1;P1;durP2;ratioP2;P2;SDS_P1;SDS_P2;PMS_P1;PMS_P2;Temp;Humidity;BMP_temperature;BMP_pressure;BME280_temperature;BME280_humidity;BME280_pressure;Samples;Min_cycle;Max_cycle;Signal;HPM_P1;HPM_P2
2023/08/15 00:01:14;;;;;;;;;;;21.40;85.90;;;;;;4985577;28;19953;-67
2023/08/15 00:03:41;;;;;;;;;;;21.40;85.80;;;;;;4990545;28;20381;-67
2023/08/15 00:06:10;;;;;;;;;;;21.50;85.70;;;;;;4991522;28;20340;-66
2023/08/15 00:08:38;;;;;;;;;;;21.60;85.50;;;;;;4991830;28;20390;-66
2023/08/15 00:11:05;;;;;;;;;;;21.60;85.50;;;;;;4991137;28;21715;-67
2023/08/15 00:13:33;;;;;;;;;;;21.50;85.50;;;;;;4993152;28;20381;-66
2023/08/15 00:16:00;;;;;;;;;;;21.60;85.40;;;;;;4990822;28;20000;-67
2023/08/15 00:18:27;;;;;;;;;;;21.50;85.30;;;;;;4990277;28;19930;-66
2023/08/15 00:20:54;;;;;;;;;;;21.40;85.40;;;;;;4989411;28;19933;-67
2023/08/15 00:23:23;;;;;;;;;;;21.50;85.40;;;;;;4990952;28;20012;-66
2023/08/15 00:25:50;;;;;;;;;;;21.40;85.60;;;;;;4991276;28;19976;-66
2023/08/15 00:28:17;;;;;;;;;;;21.30;85.70;;;;;;4991936;28;19929;-67
2023/08/15 00:30:45;;;;;;;;;;;21.30;85.80;;;;;;4990955;28;20437;-68
2023/08/15 00:33:12;;;;;;;;;;;21.20;86.00;;;;;;4991099;28;19940;-67
2023/08/15 00:35:39;;;;;;;;;;;21.20;86.10;;;;;;5004509;28;19932;-67
2023/08/15 00:38:06;;;;;;;;;;;21.20;86.10;;;;;;4988258;28;19926;-66
2023/08/15 00:40:38;;;;;;;;;;;21.20;86.10;;;;;;5007006;28;19940;-66
2023/08/15 00:43:05;;;;;;;;;;;21.10;86.10;;;;;;4989506;28;19961;-66
2023/08/15 00:45:33;;;;;;;;;;;21.10;86.20;;;;;;4989678;28;19932;-66
2023/08/15 00:48:01;;;;;;;;;;;21.10;86.30;;;;;;4990011;28;19937;-66
2023/08/15 00:50:28;;;;;;;;;;;21.10;86.30;;;;;;4976346;28;19930;-66
2023/08/15 00:52:56;;;;;;;;;;;21.10;86.30;;;;;;4983448;28;19929;-66
2023/08/15 00:55:23;;;;;;;;;;;21.10;86.20;;;;;;4984400;28;19941;-67
2023/08/15 00:57:52;;;;;;;;;;;21.10;86.10;;;;;;4986406;28;19932;-66
2023/08/15 01:00:19;;;;;;;;;;;21.10;86.10;;;;;;4999500;28;19977;-67
2023/08/15 01:02:46;;;;;;;;;;;21.00;86.20;;;;;;4986228;28;19930;-66
2023/08/15 01:05:15;;;;;;;;;;;21.00;86.10;;;;;;4982385;28;20543;-66
2023/08/15 01:07:42;;;;;;;;;;;21.10;85.90;;;;;;4984414;28;20424;-65
2023/08/15 01:10:10;;;;;;;;;;;21.10;85.80;;;;;;4985885;28;19937;-66
2023/08/15 01:12:42;;;;;;;;;;;21.10;85.90;;;;;;4984716;28;19979;-66
2023/08/15 01:15:14;;;;;;;;;;;21.00;86.10;;;;;;4979662;28;19934;-65
2023/08/15 01:17:51;;;;;;;;;;;20.90;86.30;;;;;;4985573;28;20358;-67
2023/08/15 01:20:21;;;;;;;;;;;20.90;86.40;;;;;;4981514;28;19934;-67
2023/08/15 01:22:48;;;;;;;;;;;20.90;86.60;;;;;;4988518;28;19937;-68
2023/08/15 01:25:17;;;;;;;;;;;20.90;86.60;;;;;;4986820;28;20029;-68
2023/08/15 01:27:47;;;;;;;;;;;20.90;86.80;;;;;;4983126;28;20336;-65
2023/08/15 01:30:15;;;;;;;;;;;20.90;86.70;;;;;;4985744;28;19925;-67
2023/08/15 01:32:47;;;;;;;;;;;20.90;86.70;;;;;;4989293;28;19933;-66
2023/08/15 01:35:16;;;;;;;;;;;20.90;86.70;;;;;;4985382;28;19929;-67
2023/08/15 01:37:44;;;;;;;;;;;20.90;86.70;;;;;;4990731;28;19930;-67
2023/08/15 01:40:15;;;;;;;;;;;20.80;86.70;;;;;;4987784;28;19926;-67
2023/08/15 01:42:45;;;;;;;;;;;20.80;86.70;;;;;;4981996;28;20385;-66
2023/08/15 01:45:12;;;;;;;;;;;20.80;86.70;;;;;;4983668;28;19933;-66
2023/08/15 01:47:39;;;;;;;;;;;20.80;86.60;;;;;;4987906;28;19926;-65
2023/08/15 01:50:07;;;;;;;;;;;20.70;86.60;;;;;;4998792;28;19997;-66
2023/08/15 01:52:34;;;;;;;;;;;20.70;86.60;;;;;;4999286;28;19929;-66
2023/08/15 01:55:02;;;;;;;;;;;20.70;86.60;;;;;;4974871;28;19929;-66
2023/08/15 01:57:29;;;;;;;;;;;20.70;86.60;;;;;;4983835;28;20021;-67
2023/08/15 01:59:58;;;;;;;;;;;20.70;86.60;;;;;;4987468;28;19933;-66
2023/08/15 02:02:26;;;;;;;;;;;20.60;86.60;;;;;;4997040;28;20000;-68
2023/08/15 02:04:53;;;;;;;;;;;20.60;86.60;;;;;;4983317;28;20373;-67
2023/08/15 02:07:20;;;;;;;;;;;20.60;86.70;;;;;;4982368;28;19930;-67
2023/08/15 02:09:47;;;;;;;;;;;20.60;86.60;;;;;;4998882;28;19936;-66
2023/08/15 02:12:15;;;;;;;;;;;20.60;86.60;;;;;;4985923;28;19930;-67
2023/08/15 02:14:42;;;;;;;;;;;20.60;86.70;;;;;;4988161;28;20302;-68
2023/08/15 02:17:11;;;;;;;;;;;20.60;86.70;;;;;;4985563;28;20008;-67
2023/08/15 02:19:38;;;;;;;;;;;20.60;86.50;;;;;;4984515;28;19930;-67
2023/08/15 02:22:05;;;;;;;;;;;20.60;86.40;;;;;;4985334;28;19953;-68
2023/08/15 02:24:32;;;;;;;;;;;20.60;86.50;;;;;;4988266;28;19933;-68
2023/08/15 02:26:59;;;;;;;;;;;20.60;86.40;;;;;;4984597;28;19933;-67
2023/08/15 02:29:27;;;;;;;;;;;20.60;86.50;;;;;;4981824;28;19930;-67
2023/08/15 02:31:54;;;;;;;;;;;20.60;86.40;;;;;;4984475;28;19934;-68
2023/08/15 02:34:23;;;;;;;;;;;20.60;86.30;;;;;;4987126;28;19965;-67
2023/08/15 02:36:50;;;;;;;;;;;20.60;86.40;;;;;;4982970;28;19929;-67
2023/08/15 02:39:18;;;;;;;;;;;20.60;86.50;;;;;;4981479;28;19925;-66
2023/08/15 02:41:45;;;;;;;;;;;20.50;86.70;;;;;;4986153;28;19949;-66
2023/08/15 02:44:13;;;;;;;;;;;20.50;86.80;;;;;;4985212;28;20432;-67
2023/08/15 02:46:40;;;;;;;;;;;20.50;86.90;;;;;;4982574;28;20019;-67
2023/08/15 02:49:07;;;;;;;;;;;20.40;87.00;;;;;;4981967;28;20050;-67
2023/08/15 02:51:35;;;;;;;;;;;20.40;87.10;;;;;;4984820;28;19930;-67
2023/08/15 02:54:03;;;;;;;;;;;20.40;87.10;;;;;;4988377;28;19929;-68
2023/08/15 02:56:30;;;;;;;;;;;20.40;87.10;;;;;;4987785;28;20366;-67
2023/08/15 02:58:58;;;;;;;;;;;20.40;87.10;;;;;;4984910;28;19926;-67
2023/08/15 03:01:25;;;;;;;;;;;20.40;87.20;;;;;;4987934;28;19926;-67
2023/08/15 03:03:52;;;;;;;;;;;20.40;87.20;;;;;;4987336;28;19929;-67
2023/08/15 03:06:19;;;;;;;;;;;20.40;87.20;;;;;;5001845;28;20617;-67
2023/08/15 03:08:48;;;;;;;;;;;20.40;87.20;;;;;;4982901;28;20352;-68
2023/08/15 03:11:15;;;;;;;;;;;20.40;87.30;;;;;;4982006;28;19930;-67
2023/08/15 03:13:42;;;;;;;;;;;20.40;87.30;;;;;;4986195;28;19934;-67
2023/08/15 03:16:09;;;;;;;;;;;20.30;87.40;;;;;;4984225;28;19950;-67
2023/08/15 03:18:37;;;;;;;;;;;20.30;87.30;;;;;;4984188;28;20032;-66
2023/08/15 03:21:05;;;;;;;;;;;20.30;87.30;;;;;;4985212;28;19930;-67
2023/08/15 03:23:34;;;;;;;;;;;20.30;87.40;;;;;;4986454;28;19926;-66
2023/08/15 03:26:04;;;;;;;;;;;20.30;87.30;;;;;;4992306;28;20381;-67
2023/08/15 03:28:36;;;;;;;;;;;20.40;87.00;;;;;;4999870;28;19929;-65
2023/08/15 03:31:04;;;;;;;;;;;20.40;86.90;;;;;;4996898;28;20002;-65
2023/08/15 03:33:41;;;;;;;;;;;20.40;86.80;;;;;;4975307;28;19937;-64
2023/08/15 03:36:09;;;;;;;;;;;20.40;86.80;;;;;;4979724;28;19936;-64
2023/08/15 03:38:37;;;;;;;;;;;20.30;87.00;;;;;;4990362;28;19937;-64
2023/08/15 03:41:06;;;;;;;;;;;20.30;87.10;;;;;;4992360;28;19941;-65
2023/08/15 03:43:33;;;;;;;;;;;20.30;86.90;;;;;;4990845;28;20380;-63
2023/08/15 03:46:01;;;;;;;;;;;20.30;86.90;;;;;;4988702;28;19937;-64
2023/08/15 03:48:30;;;;;;;;;;;20.30;86.90;;;;;;4987916;28;19926;-62
2023/08/15 03:50:57;;;;;;;;;;;20.30;87.00;;;;;;5000026;28;20044;-63
2023/08/15 03:53:25;;;;;;;;;;;20.30;87.10;;;;;;4986253;28;19933;-63
2023/08/15 03:55:54;;;;;;;;;;;20.20;87.10;;;;;;4984935;28;19930;-64
2023/08/15 03:58:23;;;;;;;;;;;20.20;87.20;;;;;;4988485;28;19984;-64
2023/08/15 04:00:50;;;;;;;;;;;20.20;87.30;;;;;;4990561;28;19960;-64
2023/08/15 04:03:18;;;;;;;;;;;20.20;87.30;;;;;;4987763;28;19929;-64
2023/08/15 04:05:47;;;;;;;;;;;20.20;87.40;;;;;;5002005;28;19934;-63
2023/08/15 04:08:14;;;;;;;;;;;20.20;87.30;;;;;;4983601;28;19936;-64
2023/08/15 04:10:42;;;;;;;;;;;20.10;87.40;;;;;;4988100;28;19961;-64
2023/08/15 04:13:10;;;;;;;;;;;20.10;87.50;;;;;;4985433;28;19929;-64
2023/08/15 04:15:39;;;;;;;;;;;20.10;87.50;;;;;;4989457;28;20024;-64
2023/08/15 04:18:08;;;;;;;;;;;20.10;87.60;;;;;;4989515;28;20033;-64
2023/08/15 04:20:36;;;;;;;;;;;20.20;87.50;;;;;;4990363;28;19929;-64
2023/08/15 04:23:04;;;;;;;;;;;20.20;87.40;;;;;;4991400;28;19926;-64
2023/08/15 04:25:31;;;;;;;;;;;20.20;87.60;;;;;;4984458;28;20012;-63
2023/08/15 04:27:58;;;;;;;;;;;20.20;87.70;;;;;;4989922;28;19925;-63
2023/08/15 04:30:26;;;;;;;;;;;20.30;87.70;;;;;;5004723;28;19932;-63
2023/08/15 04:32:55;;;;;;;;;;;20.40;87.50;;;;;;4991312;28;19953;-63
2023/08/15 04:35:23;;;;;;;;;;;20.40;87.50;;;;;;4991069;28;19934;-63
2023/08/15 04:37:50;;;;;;;;;;;20.40;87.60;;;;;;5003454;28;19961;-63
2023/08/15 04:40:31;;;;;;;;;;;20.50;87.50;;;;;;4990025;28;19930;-63
2023/08/15 04:42:58;;;;;;;;;;;20.50;87.40;;;;;;4985105;28;19926;-63
2023/08/15 04:45:26;;;;;;;;;;;20.50;87.40;;;;;;4985243;28;20016;-63
2023/08/15 04:47:55;;;;;;;;;;;20.50;87.50;;;;;;4982817;28;19929;-63
2023/08/15 04:50:22;;;;;;;;;;;20.50;87.50;;;;;;4987286;28;19934;-63
2023/08/15 04:52:50;;;;;;;;;;;20.60;87.30;;;;;;4988339;28;19929;-63
2023/08/15 04:55:19;;;;;;;;;;;20.60;87.30;;;;;;4968928;28;20334;-63
2023/08/15 04:57:46;;;;;;;;;;;20.60;87.20;;;;;;4967118;28;20449;-62
2023/08/15 05:00:15;;;;;;;;;;;20.60;87.40;;;;;;4964316;28;20390;-63
2023/08/15 05:02:46;;;;;;;;;;;20.60;87.20;;;;;;4965931;28;20053;-64
2023/08/15 05:05:22;;;;;;;;;;;20.60;87.10;;;;;;4975763;28;19929;-63
2023/08/15 05:07:54;;;;;;;;;;;20.60;87.30;;;;;;4980200;28;19969;-63
2023/08/15 05:10:30;;;;;;;;;;;20.60;87.30;;;;;;4987586;28;19929;-62
2023/08/15 05:13:05;;;;;;;;;;;20.60;87.10;;;;;;4978550;28;20985;-63
2023/08/15 05:15:39;;;;;;;;;;;20.60;87.40;;;;;;4995412;28;20355;-62
2023/08/15 05:18:14;;;;;;;;;;;20.60;87.40;;;;;;4982476;28;20016;-64
2023/08/15 05:20:47;;;;;;;;;;;20.60;87.40;;;;;;4992104;28;19965;-64
2023/08/15 05:23:20;;;;;;;;;;;20.60;87.60;;;;;;4984197;28;19936;-63
2023/08/15 05:25:54;;;;;;;;;;;20.60;87.60;;;;;;4983728;28;20004;-65
2023/08/15 05:28:26;;;;;;;;;;;20.60;87.40;;;;;;4963463;28;19938;-68
2023/08/15 05:30:58;;;;;;;;;;;20.60;87.60;;;;;;4947214;28;19935;-64
2023/08/15 05:33:32;;;;;;;;;;;20.60;87.60;;;;;;4962497;28;19933;-63
2023/08/15 05:36:07;;;;;;;;;;;20.70;87.60;;;;;;4964427;28;20025;-62
2023/08/15 05:38:40;;;;;;;;;;;20.80;87.60;;;;;;4991417;28;20067;-65
2023/08/15 05:41:12;;;;;;;;;;;20.80;87.40;;;;;;4985999;28;20381;-62
2023/08/15 05:43:42;;;;;;;;;;;20.80;87.30;;;;;;4976460;28;20416;-62
2023/08/15 05:46:15;;;;;;;;;;;20.70;87.80;;;;;;4985114;28;19937;-62
2023/08/15 05:48:45;;;;;;;;;;;20.80;88.00;;;;;;4983417;28;19930;-63
2023/08/15 05:51:24;;;;;;;;;;;20.70;87.70;;;;;;4979037;28;19961;-62
2023/08/15 05:54:02;;;;;;;;;;;20.80;87.60;;;;;;4982027;28;19972;-62
2023/08/15 05:56:40;;;;;;;;;;;20.80;87.70;;;;;;4978602;28;19925;-63
2023/08/15 05:59:15;;;;;;;;;;;20.90;87.50;;;;;;4987084;28;20026;-63
2023/08/15 06:01:53;;;;;;;;;;;20.90;87.50;;;;;;4988327;28;20025;-62
2023/08/15 06:04:30;;;;;;;;;;;21.00;87.90;;;;;;4987557;28;19933;-63
2023/08/15 06:07:12;;;;;;;;;;;21.00;87.90;;;;;;4988845;28;20016;-63
2023/08/15 06:09:49;;;;;;;;;;;21.00;87.70;;;;;;4988409;28;20357;-63
2023/08/15 06:12:26;;;;;;;;;;;21.10;87.40;;;;;;4988485;28;20404;-62
2023/08/15 06:15:03;;;;;;;;;;;21.10;86.40;;;;;;4969097;28;19961;-63
2023/08/15 06:17:39;;;;;;;;;;;21.30;86.90;;;;;;4987435;28;19961;-63
2023/08/15 06:20:17;;;;;;;;;;;21.30;87.40;;;;;;4987205;28;19937;-62
2023/08/15 06:22:57;;;;;;;;;;;21.30;87.50;;;;;;4989126;28;19936;-63
2023/08/15 06:25:30;;;;;;;;;;;21.30;88.00;;;;;;4981209;28;20016;-62
2023/08/15 06:28:04;;;;;;;;;;;21.20;87.90;;;;;;4980216;28;20256;-62
2023/08/15 06:30:41;;;;;;;;;;;21.30;87.90;;;;;;4978853;28;19925;-62
2023/08/15 06:33:17;;;;;;;;;;;21.30;87.30;;;;;;4981968;28;20609;-63
2023/08/15 06:35:52;;;;;;;;;;;21.40;87.80;;;;;;4988141;28;20333;-63
2023/08/15 06:38:37;;;;;;;;;;;21.50;87.70;;;;;;4988460;28;19968;-62
2023/08/15 06:41:18;;;;;;;;;;;21.60;88.10;;;;;;4984285;28;20680;-62
2023/08/15 06:44:02;;;;;;;;;;;21.70;87.20;;;;;;4946181;28;20271;-63
2023/08/15 06:46:40;;;;;;;;;;;21.90;87.70;;;;;;4968633;28;19953;-63
2023/08/15 06:49:20;;;;;;;;;;;22.10;87.50;;;;;;4963001;28;20036;-62
2023/08/15 06:51:54;;;;;;;;;;;22.20;87.40;;;;;;4959905;28;19966;-63
2023/08/15 06:54:36;;;;;;;;;;;22.50;87.20;;;;;;4974496;28;19926;-64
2023/08/15 06:57:11;;;;;;;;;;;22.60;87.10;;;;;;4981703;28;19972;-62
2023/08/15 06:59:46;;;;;;;;;;;22.80;86.50;;;;;;4982940;28;19926;-71
2023/08/15 07:02:24;;;;;;;;;;;22.90;86.20;;;;;;4985734;28;19930;-70
2023/08/15 07:05:00;;;;;;;;;;;23.10;86.00;;;;;;4988014;28;19933;-70
2023/08/15 07:07:38;;;;;;;;;;;23.20;86.20;;;;;;4983366;28;20624;-71
2023/08/15 07:10:20;;;;;;;;;;;23.30;85.60;;;;;;4986735;28;19937;-70
2023/08/15 07:12:56;;;;;;;;;;;23.40;85.40;;;;;;4987213;28;19932;-70
2023/08/15 07:15:35;;;;;;;;;;;23.50;85.40;;;;;;4984233;28;19934;-69
2023/08/15 07:18:09;;;;;;;;;;;23.50;85.40;;;;;;4989629;28;19937;-70
2023/08/15 07:20:45;;;;;;;;;;;23.60;85.30;;;;;;4988034;28;19932;-71
2023/08/15 07:23:28;;;;;;;;;;;23.60;85.20;;;;;;4988300;28;19926;-71
2023/08/15 07:26:10;;;;;;;;;;;23.70;85.10;;;;;;4988756;28;20337;-70
2023/08/15 07:28:50;;;;;;;;;;;23.70;84.60;;;;;;4989495;28;19926;-71
2023/08/15 07:31:30;;;;;;;;;;;23.70;84.40;;;;;;4988884;28;19936;-69
2023/08/15 07:34:13;;;;;;;;;;;23.80;84.50;;;;;;4987364;28;20309;-69
2023/08/15 07:36:51;;;;;;;;;;;24.00;84.40;;;;;;4988152;28;19926;-71
2023/08/15 07:39:29;;;;;;;;;;;24.10;84.00;;;;;;4989731;28;19938;-70
2023/08/15 07:42:14;;;;;;;;;;;24.20;83.50;;;;;;4989893;28;20020;-72
2023/08/15 07:44:52;;;;;;;;;;;24.40;82.90;;;;;;4989204;28;20496;-70
2023/08/15 07:47:39;;;;;;;;;;;24.60;82.80;;;;;;4987483;28;19934;-71
2023/08/15 07:50:15;;;;;;;;;;;24.70;82.30;;;;;;4988315;28;19929;-70
2023/08/15 07:52:50;;;;;;;;;;;24.80;81.70;;;;;;4984258;28;19925;-70
2023/08/15 07:55:32;;;;;;;;;;;24.90;81.50;;;;;;4985760;28;19981;-71
2023/08/15 07:58:21;;;;;;;;;;;25.00;81.10;;;;;;4986654;28;19952;-70
2023/08/15 08:01:00;;;;;;;;;;;25.20;80.80;;;;;;4986111;28;20408;-70
2023/08/15 08:03:31;;;;;;;;;;;25.30;80.50;;;;;;4989060;28;19952;-72
2023/08/15 08:06:06;;;;;;;;;;;25.40;80.10;;;;;;4989960;28;20020;-70
2023/08/15 08:08:44;;;;;;;;;;;25.50;79.10;;;;;;4990044;28;19969;-69
2023/08/15 08:11:32;;;;;;;;;;;25.60;78.60;;;;;;4987483;28;20392;-69
2023/08/15 08:14:16;;;;;;;;;;;25.70;78.90;;;;;;4968968;28;19932;-69
2023/08/15 08:16:54;;;;;;;;;;;25.80;78.90;;;;;;4986032;28;19979;-68
2023/08/15 08:19:31;;;;;;;;;;;26.00;78.20;;;;;;4989012;28;19929;-68
2023/08/15 08:22:08;;;;;;;;;;;26.10;78.10;;;;;;4988768;28;20377;-69
2023/08/15 08:24:45;;;;;;;;;;;26.20;76.50;;;;;;4990189;28;19930;-68
2023/08/15 08:27:17;;;;;;;;;;;26.30;76.80;;;;;;4991160;28;20542;-68
2023/08/15 08:29:48;;;;;;;;;;;26.30;76.80;;;;;;4991643;28;19937;-68
2023/08/15 08:32:28;;;;;;;;;;;26.40;76.40;;;;;;4989898;28;19933;-70
2023/08/15 08:35:05;;;;;;;;;;;26.50;76.10;;;;;;4990328;28;20397;-68
2023/08/15 08:37:44;;;;;;;;;;;26.60;75.90;;;;;;4987973;28;19941;-68
2023/08/15 08:40:29;;;;;;;;;;;26.90;74.80;;;;;;4990423;28;19926;-68
2023/08/15 08:43:06;;;;;;;;;;;27.10;73.60;;;;;;4990676;28;19934;-68
2023/08/15 08:45:50;;;;;;;;;;;27.20;73.60;;;;;;4989991;28;19930;-68
2023/08/15 08:48:18;;;;;;;;;;;27.20;73.20;;;;;;4971045;28;20025;-69
2023/08/15 08:50:54;;;;;;;;;;;27.30;71.00;;;;;;4978633;28;19965;-69
2023/08/15 08:53:30;;;;;;;;;;;27.40;68.30;;;;;;4982549;28;19932;-68
2023/08/15 08:56:06;;;;;;;;;;;27.40;67.40;;;;;;4988888;28;19929;-69
2023/08/15 08:58:45;;;;;;;;;;;27.50;64.60;;;;;;4989234;28;20027;-67
2023/08/15 09:01:26;;;;;;;;;;;27.60;64.70;;;;;;4988697;28;19938;-68
2023/08/15 09:04:08;;;;;;;;;;;27.70;65.30;;;;;;4990130;28;20061;-68
2023/08/15 09:06:37;;;;;;;;;;;27.80;66.10;;;;;;4989664;28;19925;-68
2023/08/15 09:09:13;;;;;;;;;;;27.90;65.80;;;;;;4989984;28;19930;-68
2023/08/15 09:11:54;;;;;;;;;;;27.90;64.90;;;;;;4989977;28;19965;-68
2023/08/15 09:14:30;;;;;;;;;;;28.00;65.70;;;;;;4988697;28;20385;-68
2023/08/15 09:17:13;;;;;;;;;;;28.10;66.50;;;;;;4989258;28;20399;-67
2023/08/15 09:19:45;;;;;;;;;;;28.10;66.50;;;;;;4989561;28;19930;-67
2023/08/15 09:22:27;;;;;;;;;;;28.10;65.00;;;;;;4989544;28;20000;-66
2023/08/15 09:25:00;;;;;;;;;;;28.20;64.30;;;;;;4988935;28;19962;-67
2023/08/15 09:27:33;;;;;;;;;;;28.30;64.60;;;;;;4988480;28;19984;-68
2023/08/15 09:30:10;;;;;;;;;;;28.40;64.50;;;;;;4989985;28;19941;-67
2023/08/15 09:32:47;;;;;;;;;;;28.50;65.10;;;;;;4988689;28;19981;-68
2023/08/15 09:35:24;;;;;;;;;;;28.60;65.10;;;;;;4989106;28;19980;-68
2023/08/15 09:38:05;;;;;;;;;;;28.60;64.50;;;;;;4988034;28;19930;-67
2023/08/15 09:40:42;;;;;;;;;;;28.70;63.90;;;;;;4987001;28;19926;-69
2023/08/15 09:43:15;;;;;;;;;;;28.80;62.60;;;;;;4988824;28;20297;-68
2023/08/15 09:45:43;;;;;;;;;;;28.90;62.10;;;;;;4988824;28;19993;-68
2023/08/15 09:48:12;;;;;;;;;;;29.00;61.50;;;;;;4986035;28;19932;-67
2023/08/15 09:50:41;;;;;;;;;;;29.10;60.90;;;;;;4987967;28;19933;-67
2023/08/15 09:53:11;;;;;;;;;;;29.10;61.30;;;;;;4988364;28;19937;-68
2023/08/15 09:55:47;;;;;;;;;;;29.10;62.30;;;;;;4993856;28;20454;-66
2023/08/15 09:58:16;;;;;;;;;;;29.10;62.80;;;;;;4987910;28;19930;-68
2023/08/15 10:00:46;;;;;;;;;;;29.20;62.80;;;;;;4988630;28;19969;-68
2023/08/15 10:03:20;;;;;;;;;;;29.30;63.20;;;;;;4988583;28;19940;-68
2023/08/15 10:05:53;;;;;;;;;;;29.40;62.70;;;;;;4987858;28;19930;-68
2023/08/15 10:08:23;;;;;;;;;;;29.40;63.00;;;;;;4990120;28;20020;-68
2023/08/15 10:10:52;;;;;;;;;;;29.20;62.70;;;;;;4988319;28;20296;-68
2023/08/15 10:13:22;;;;;;;;;;;29.00;63.70;;;;;;4989453;28;19929;-69
2023/08/15 10:15:50;;;;;;;;;;;28.90;63.10;;;;;;4988020;28;19925;-67
2023/08/15 10:18:19;;;;;;;;;;;28.80;62.60;;;;;;4989823;28;19930;-67
2023/08/15 10:20:52;;;;;;;;;;;28.90;62.20;;;;;;4986252;28;19933;-67
2023/08/15 10:23:24;;;;;;;;;;;29.00;62.20;;;;;;4989126;28;19929;-68
2023/08/15 10:25:53;;;;;;;;;;;28.90;62.20;;;;;;4988142;28;19926;-67
2023/08/15 10:28:20;;;;;;;;;;;29.00;61.90;;;;;;4988638;28;19940;-67
2023/08/15 10:30:50;;;;;;;;;;;29.10;62.60;;;;;;4988420;28;19929;-67
2023/08/15 10:33:20;;;;;;;;;;;29.30;62.60;;;;;;4989267;28;19953;-68
2023/08/15 10:35:52;;;;;;;;;;;29.50;62.30;;;;;;4987877;28;19988;-68
2023/08/15 10:38:21;;;;;;;;;;;29.60;61.90;;;;;;4989055;28;19929;-67
2023/08/15 10:40:48;;;;;;;;;;;29.80;61.80;;;;;;4986502;28;20420;-68
2023/08/15 10:43:16;;;;;;;;;;;29.70;61.90;;;;;;4989796;28;20020;-69
2023/08/15 10:45:46;;;;;;;;;;;29.80;61.70;;;;;;4980304;28;19934;-68
2023/08/15 10:48:14;;;;;;;;;;;29.60;62.00;;;;;;4985539;28;19932;-68
2023/08/15 10:50:47;;;;;;;;;;;29.60;61.80;;;;;;4984602;28;19961;-67
2023/08/15 10:53:15;;;;;;;;;;;29.60;62.20;;;;;;4987518;28;20032;-68
2023/08/15 10:55:43;;;;;;;;;;;29.60;62.00;;;;;;4988245;28;19937;-69
2023/08/15 10:58:11;;;;;;;;;;;29.70;62.00;;;;;;4987491;28;19926;-68
2023/08/15 11:00:41;;;;;;;;;;;29.80;62.00;;;;;;4988158;28;19936;-69
2023/08/15 11:03:08;;;;;;;;;;;29.80;62.10;;;;;;4987431;28;19930;-68
2023/08/15 11:05:36;;;;;;;;;;;29.70;62.40;;;;;;4984203;28;20447;-71
2023/08/15 11:08:15;;;;;;;;;;;29.60;62.30;;;;;;4980377;28;20393;-69
2023/08/15 11:10:48;;;;;;;;;;;29.60;62.90;;;;;;4987880;28;20365;-68
2023/08/15 11:13:16;;;;;;;;;;;29.60;63.00;;;;;;4988546;28;20376;-68
2023/08/15 11:15:45;;;;;;;;;;;29.60;63.10;;;;;;4987128;28;19925;-68
2023/08/15 11:18:13;;;;;;;;;;;29.40;63.10;;;;;;4989361;28;19925;-67
2023/08/15 11:20:41;;;;;;;;;;;29.30;63.00;;;;;;4987570;28;19953;-69
2023/08/15 11:23:08;;;;;;;;;;;29.20;62.60;;;;;;4987280;28;19930;-69
2023/08/15 11:25:37;;;;;;;;;;;29.10;63.20;;;;;;4987942;28;19941;-68
2023/08/15 11:28:05;;;;;;;;;;;28.90;63.50;;;;;;4987403;28;19973;-68
2023/08/15 11:30:35;;;;;;;;;;;28.90;63.20;;;;;;4988288;28;19925;-67
2023/08/15 11:33:03;;;;;;;;;;;28.90;63.30;;;;;;4987598;28;20340;-69
2023/08/15 11:35:30;;;;;;;;;;;29.00;64.30;;;;;;4986721;28;19948;-68
2023/08/15 11:37:59;;;;;;;;;;;29.10;63.30;;;;;;4987309;28;20401;-69
2023/08/15 11:40:27;;;;;;;;;;;29.10;63.40;;;;;;4988053;28;19968;-69
2023/08/15 11:42:57;;;;;;;;;;;29.10;63.30;;;;;;4987550;28;19977;-68
2023/08/15 11:45:25;;;;;;;;;;;29.30;63.10;;;;;;4987374;28;19934;-68
2023/08/15 11:47:56;;;;;;;;;;;29.30;63.70;;;;;;4987690;28;19930;-69
2023/08/15 11:50:24;;;;;;;;;;;29.20;62.60;;;;;;4990538;28;19973;-67
2023/08/15 11:52:52;;;;;;;;;;;29.20;63.60;;;;;;4991125;28;19930;-68
2023/08/15 11:55:19;;;;;;;;;;;29.20;63.00;;;;;;4990711;28;20393;-69
2023/08/15 11:57:47;;;;;;;;;;;29.30;63.20;;;;;;4991074;28;19972;-68
2023/08/15 12:00:18;;;;;;;;;;;29.40;63.70;;;;;;4991755;28;19930;-69
2023/08/15 12:02:45;;;;;;;;;;;29.30;63.70;;;;;;4989996;28;19949;-70
2023/08/15 12:05:13;;;;;;;;;;;29.10;63.40;;;;;;4990564;28;19997;-70
2023/08/15 12:07:40;;;;;;;;;;;28.90;62.90;;;;;;4991335;28;20013;-69
2023/08/15 12:10:08;;;;;;;;;;;28.60;63.10;;;;;;4990903;28;19954;-68
2023/08/15 12:12:39;;;;;;;;;;;28.50;62.80;;;;;;4992398;28;19925;-69
2023/08/15 12:15:08;;;;;;;;;;;28.50;62.80;;;;;;4990399;28;19934;-68
2023/08/15 12:17:37;;;;;;;;;;;28.50;62.80;;;;;;4990149;28;20297;-70
2023/08/15 12:20:06;;;;;;;;;;;28.50;63.10;;;;;;4990041;28;19957;-69
2023/08/15 12:22:34;;;;;;;;;;;28.40;63.40;;;;;;4990263;28;19929;-69
2023/08/15 12:25:02;;;;;;;;;;;28.40;63.60;;;;;;4990367;28;19932;-69
2023/08/15 12:27:29;;;;;;;;;;;28.30;63.70;;;;;;4991498;28;19933;-70
2023/08/15 12:29:57;;;;;;;;;;;28.30;63.80;;;;;;4989916;28;19926;-70
2023/08/15 12:32:25;;;;;;;;;;;28.10;63.70;;;;;;4988860;28;19965;-68
2023/08/15 12:34:54;;;;;;;;;;;28.10;63.80;;;;;;4990499;28;19930;-69
2023/08/15 12:37:21;;;;;;;;;;;28.00;63.80;;;;;;4989514;28;20021;-69
2023/08/15 12:39:49;;;;;;;;;;;28.00;64.00;;;;;;4991635;28;19930;-69
2023/08/15 12:42:17;;;;;;;;;;;27.90;64.60;;;;;;4990322;28;20029;-69
2023/08/15 12:44:45;;;;;;;;;;;27.80;65.40;;;;;;4988868;28;20415;-70
2023/08/15 12:47:13;;;;;;;;;;;27.70;66.40;;;;;;4989923;28;19936;-70
2023/08/15 12:49:40;;;;;;;;;;;27.60;67.80;;;;;;4990349;28;20008;-69
2023/08/15 12:52:09;;;;;;;;;;;27.40;68.90;;;;;;4989534;28;19984;-68
2023/08/15 12:54:38;;;;;;;;;;;27.30;69.40;;;;;;4991209;28;19981;-69
2023/08/15 12:57:05;;;;;;;;;;;27.30;69.90;;;;;;4989496;28;19936;-68
2023/08/15 12:59:33;;;;;;;;;;;27.40;69.60;;;;;;4989104;28;19933;-68
2023/08/15 13:02:01;;;;;;;;;;;27.50;69.60;;;;;;4989759;28;20416;-68
2023/08/15 13:04:28;;;;;;;;;;;27.50;69.40;;;;;;4990407;28;19933;-69
2023/08/15 13:06:56;;;;;;;;;;;27.40;68.70;;;;;;4990407;28;19940;-69
2023/08/15 13:09:24;;;;;;;;;;;27.30;69.20;;;;;;4988864;28;19926;-69
2023/08/15 13:11:52;;;;;;;;;;;27.30;68.90;;;;;;4989803;28;20406;-69
2023/08/15 13:14:19;;;;;;;;;;;27.40;68.80;;;;;;4989807;28;19934;-69
2023/08/15 13:16:47;;;;;;;;;;;27.50;68.20;;;;;;4989264;28;19933;-68
2023/08/15 13:19:15;;;;;;;;;;;27.50;68.50;;;;;;4989058;28;19980;-69
2023/08/15 13:21:42;;;;;;;;;;;27.60;67.90;;;;;;4991138;28;19933;-69
2023/08/15 13:24:10;;;;;;;;;;;27.70;67.40;;;;;;4988889;28;20037;-68
2023/08/15 13:26:39;;;;;;;;;;;27.80;67.60;;;;;;4989647;28;19930;-69
2023/08/15 13:29:06;;;;;;;;;;;27.90;67.70;;;;;;4987663;28;19965;-69
2023/08/15 13:31:34;;;;;;;;;;;27.90;67.20;;;;;;4990439;28;19977;-69
2023/08/15 13:34:01;;;;;;;;;;;27.90;67.10;;;;;;4990001;28;20016;-69
2023/08/15 13:36:29;;;;;;;;;;;27.90;67.40;;;;;;4989727;28;19934;-69
2023/08/15 13:38:56;;;;;;;;;;;27.80;67.20;;;;;;4986735;28;19930;-68
2023/08/15 13:41:24;;;;;;;;;;;27.70;67.90;;;;;;4988958;28;19925;-69
2023/08/15 13:43:53;;;;;;;;;;;27.60;67.60;;;;;;4988764;28;19933;-69
2023/08/15 13:46:21;;;;;;;;;;;27.50;68.00;;;;;;4988461;28;19930;-68
2023/08/15 13:48:48;;;;;;;;;;;27.50;68.00;;;;;;4990928;28;19926;-68
2023/08/15 13:51:17;;;;;;;;;;;27.50;68.50;;;;;;4988108;28;19926;-68
2023/08/15 13:53:45;;;;;;;;;;;27.50;68.90;;;;;;4989332;28;19926;-69
2023/08/15 13:56:12;;;;;;;;;;;27.50;68.60;;;;;;4988627;28;20393;-68
2023/08/15 13:58:40;;;;;;;;;;;27.60;68.70;;;;;;4988467;28;20017;-69
2023/08/15 14:01:09;;;;;;;;;;;27.70;68.20;;;;;;4989263;28;19929;-67
2023/08/15 14:03:37;;;;;;;;;;;27.80;68.20;;;;;;4988737;28;19926;-68
2023/08/15 14:06:05;;;;;;;;;;;27.80;68.00;;;;;;4988997;28;20017;-67
2023/08/15 14:08:32;;;;;;;;;;;27.90;68.90;;;;;;4990107;28;19934;-69
2023/08/15 14:11:01;;;;;;;;;;;27.80;68.30;;;;;;4989292;28;19926;-68
2023/08/15 14:13:29;;;;;;;;;;;27.90;68.70;;;;;;4989800;28;19936;-68
2023/08/15 14:15:57;;;;;;;;;;;27.80;68.20;;;;;;4989832;28;19954;-67
2023/08/15 14:18:26;;;;;;;;;;;27.80;68.40;;;;;;4989656;28;20389;-70
2023/08/15 14:20:54;;;;;;;;;;;27.60;68.40;;;;;;4987792;28;19949;-69
2023/08/15 14:23:22;;;;;;;;;;;27.60;69.20;;;;;;4988977;28;19973;-69
2023/08/15 14:25:50;;;;;;;;;;;27.50;69.00;;;;;;4988649;28;19926;-69
2023/08/15 14:28:18;;;;;;;;;;;27.50;68.90;;;;;;4988920;28;19973;-69
2023/08/15 14:30:46;;;;;;;;;;;27.50;68.80;;;;;;4989064;28;19953;-68
2023/08/15 14:33:14;;;;;;;;;;;27.50;69.20;;;;;;4988417;28;20025;-68
2023/08/15 14:35:43;;;;;;;;;;;27.50;68.80;;;;;;4987365;28;19933;-70
2023/08/15 14:38:10;;;;;;;;;;;27.40;68.80;;;;;;4989147;28;19929;-68